createdAt,value
2019-03-30T00:01:09.991Z,101041.40
2019-03-30T00:03:39.724Z,101044.96
2019-03-30T00:06:09.495Z,101045.92
2019-03-30T00:08:39.376Z,101050.59
2019-03-30T00:11:09.106Z,101046.67
2019-03-30T00:13:39.000Z,101049.14
2019-03-30T00:16:08.967Z,101042.41
2019-03-30T00:18:41.382Z,101047.14
2019-03-30T00:21:10.521Z,101032.73
2019-03-30T00:23:40.364Z,101043.98
2019-03-30T00:26:10.137Z,101044.81
2019-03-30T00:28:40.155Z,101051.11
2019-03-30T00:31:09.968Z,101044.05
2019-03-30T00:33:39.690Z,101052.20
2019-03-30T00:36:09.695Z,101056.45
2019-03-30T00:38:39.527Z,101050.61
2019-03-30T00:41:09.257Z,101052.80
2019-03-30T00:43:39.343Z,101053.97
2019-03-30T00:46:09.123Z,101054.37
2019-03-30T00:48:38.859Z,101057.66
2019-03-30T00:51:08.982Z,101057.99
2019-03-30T00:53:38.775Z,101064.84
2019-03-30T00:56:08.503Z,101063.95
2019-03-30T00:58:38.513Z,101067.37
2019-03-30T01:01:08.300Z,101074.56
2019-03-30T01:03:38.045Z,101067.64
2019-03-30T01:06:08.051Z,101073.26
2019-03-30T01:08:37.834Z,101072.70
2019-03-30T01:11:07.715Z,101069.12
2019-03-30T01:13:37.691Z,101063.70
2019-03-30T01:16:07.474Z,101062.32
2019-03-30T01:18:37.201Z,101051.76
2019-03-30T01:21:07.040Z,101054.28
2019-03-30T01:23:36.922Z,101056.33
2019-03-30T01:26:06.664Z,101057.48
2019-03-30T01:28:36.677Z,101058.72
2019-03-30T01:31:06.469Z,101042.94
2019-03-30T01:33:36.206Z,101049.72
2019-03-30T01:36:06.434Z,101044.02
2019-03-30T01:38:36.200Z,101043.46
2019-03-30T01:41:06.044Z,101052.98
2019-03-30T01:43:35.946Z,101052.09
2019-03-30T01:46:05.724Z,101042.02
2019-03-30T01:48:35.499Z,101049.89
2019-03-30T01:51:05.496Z,101044.20
2019-03-30T01:53:35.372Z,101036.66
2019-03-30T01:56:05.164Z,101040.97
2019-03-30T01:58:35.129Z,101045.20
2019-03-30T02:01:04.907Z,101040.00
2019-03-30T02:03:34.639Z,101040.00
2019-03-30T02:06:04.493Z,101029.59
2019-03-30T02:08:34.358Z,101034.31
2019-03-30T02:11:04.089Z,101032.45
2019-03-30T02:13:34.019Z,101025.05
2019-03-30T02:16:03.838Z,101029.36
2019-03-30T02:18:33.606Z,101021.96
2019-03-30T02:21:03.459Z,101025.38
2019-03-30T02:23:33.455Z,101025.38
2019-03-30T02:26:03.344Z,101028.80
2019-03-30T02:28:33.080Z,101025.31
2019-03-30T02:31:03.093Z,101033.52
2019-03-30T02:33:32.941Z,101021.73
2019-03-30T02:36:02.671Z,101030.36
2019-03-30T02:38:32.636Z,101026.46
2019-03-30T02:41:02.660Z,101031.59
2019-03-30T02:43:32.466Z,101031.59
2019-03-30T02:46:02.672Z,101030.70
2019-03-30T02:48:32.768Z,101025.90
2019-03-30T02:51:02.573Z,101038.77
2019-03-30T02:53:32.637Z,101039.58
2019-03-30T02:56:02.572Z,101039.91
2019-03-30T02:58:32.301Z,101026.89
2019-03-30T03:01:02.166Z,101030.80
2019-03-30T03:03:31.934Z,101028.98
2019-03-30T03:06:01.655Z,101032.48
2019-03-30T03:08:31.718Z,101038.91
2019-03-30T03:11:01.751Z,101041.35
2019-03-30T03:13:31.483Z,101037.78
2019-03-30T03:16:01.285Z,101045.59
2019-03-30T03:18:31.261Z,101033.39
2019-03-30T03:21:07.800Z,101045.03
2019-03-30T03:23:32.760Z,101032.02
2019-03-30T03:26:02.759Z,101033.24
2019-03-30T03:28:32.551Z,101031.94
2019-03-30T03:31:02.365Z,101043.98
2019-03-30T03:33:32.380Z,101044.88
2019-03-30T03:36:02.236Z,101047.88
2019-03-30T03:38:32.038Z,101040.48
2019-03-30T03:41:01.945Z,101048.62
2019-03-30T03:43:31.694Z,101045.05
2019-03-30T03:46:01.814Z,101050.91
2019-03-30T03:48:31.766Z,101023.23
2019-03-30T03:51:04.655Z,101049.38
2019-03-30T03:53:36.000Z,101051.34
2019-03-30T03:56:06.672Z,101056.38
2019-03-30T03:58:37.820Z,101057.20
2019-03-30T04:01:07.596Z,101058.09
2019-03-30T04:03:37.549Z,101068.41
2019-03-30T04:06:07.423Z,101067.93
2019-03-30T04:08:39.221Z,101068.73
2019-03-30T04:11:10.627Z,101064.68
2019-03-30T04:13:42.985Z,101061.67
2019-03-30T04:16:12.855Z,101070.13
2019-03-30T04:18:42.609Z,101073.55
2019-03-30T04:21:12.311Z,101073.14
2019-03-30T04:23:42.204Z,101068.27
2019-03-30T04:26:11.942Z,101067.77
2019-03-30T04:28:41.669Z,101066.39
2019-03-30T04:31:11.586Z,101072.00
2019-03-30T04:33:41.325Z,101073.47
2019-03-30T04:36:11.045Z,101068.27
2019-03-30T04:38:40.910Z,101074.77
2019-03-30T04:41:10.662Z,101075.25
2019-03-30T04:43:40.469Z,101069.97
2019-03-30T04:46:10.547Z,101077.77
2019-03-30T04:48:40.418Z,101070.45
2019-03-30T04:51:10.147Z,101070.94
2019-03-30T04:53:40.185Z,101069.72
2019-03-30T04:56:09.944Z,101076.71
2019-03-30T04:58:39.677Z,101085.48
2019-03-30T05:01:09.601Z,101082.48
2019-03-30T05:03:39.335Z,101060.78
2019-03-30T05:06:09.096Z,101083.86
2019-03-30T05:08:39.012Z,101069.14
2019-03-30T05:11:08.842Z,101076.55
2019-03-30T05:13:38.782Z,101070.04
2019-03-30T05:16:08.900Z,101071.34
2019-03-30T05:18:38.711Z,101067.44
2019-03-30T05:21:08.458Z,101068.73
2019-03-30T05:23:38.330Z,101065.81
2019-03-30T05:26:08.100Z,101068.90
2019-03-30T05:28:37.828Z,101071.09
2019-03-30T05:31:07.742Z,101070.28
2019-03-30T05:33:37.477Z,101080.28
2019-03-30T05:36:07.220Z,101069.14
2019-03-30T05:38:37.312Z,101074.02
2019-03-30T05:41:07.050Z,101081.89
2019-03-30T05:43:36.765Z,101075.14
2019-03-30T05:46:06.715Z,101076.59
2019-03-30T05:48:36.461Z,101070.73
2019-03-30T05:51:06.298Z,101076.02
2019-03-30T05:53:36.282Z,101075.53
2019-03-30T05:56:06.008Z,101068.29
2019-03-30T05:58:35.782Z,101058.29
2019-03-30T06:01:05.654Z,101058.12
2019-03-30T06:03:35.415Z,101061.20
2019-03-30T06:06:05.156Z,101061.77
2019-03-30T06:08:35.021Z,101058.91
2019-03-30T06:11:04.769Z,101056.98
2019-03-30T06:13:34.502Z,101050.55
2019-03-30T06:16:04.378Z,101051.03
2019-03-30T06:18:36.032Z,101052.08
2019-03-30T06:21:07.135Z,101044.72
2019-03-30T06:23:36.860Z,101041.60
2019-03-30T06:26:06.648Z,101045.88
2019-03-30T06:28:36.621Z,101042.42
2019-03-30T06:31:06.363Z,101041.16
2019-03-30T06:33:36.095Z,101051.86
2019-03-30T06:36:08.051Z,101045.98
2019-03-30T06:38:37.510Z,101043.66
2019-03-30T06:41:07.526Z,101037.30
2019-03-30T06:43:37.334Z,101032.92
2019-03-30T06:46:07.081Z,101044.59
2019-03-30T06:48:37.648Z,101031.63
2019-03-30T06:51:07.409Z,101031.91
2019-03-30T06:53:37.257Z,101034.05
2019-03-30T06:56:07.221Z,101033.44
2019-03-30T06:58:37.037Z,101033.03
2019-03-30T07:01:06.771Z,101027.72
2019-03-30T07:03:37.029Z,101028.19
2019-03-30T07:06:08.490Z,101029.13
2019-03-30T07:08:40.455Z,101027.22
2019-03-30T07:11:21.009Z,101032.16
2019-03-30T07:13:45.295Z,101031.38
2019-03-30T07:16:17.335Z,101025.42
2019-03-30T07:18:47.808Z,101024.84
2019-03-30T07:21:17.594Z,101017.17
2019-03-30T07:23:47.325Z,101025.72
2019-03-30T07:26:17.342Z,101024.72
2019-03-30T07:28:48.592Z,101018.79
2019-03-30T07:31:18.505Z,101011.25
2019-03-30T07:33:48.263Z,101020.05
2019-03-30T07:36:18.027Z,101046.67
2019-03-30T07:38:47.942Z,101014.55
2019-03-30T07:41:17.705Z,101005.55
2019-03-30T07:43:47.586Z,101008.16
2019-03-30T07:46:19.637Z,101011.75
2019-03-30T07:48:49.245Z,101007.04
2019-03-30T07:51:19.177Z,101004.09
2019-03-30T07:53:48.959Z,101004.07
2019-03-30T07:56:18.858Z,100996.77
2019-03-30T07:58:48.844Z,100986.31
2019-03-30T08:01:18.742Z,101002.94
2019-03-30T08:03:48.532Z,101002.94
2019-03-30T08:06:18.400Z,100986.42
2019-03-30T08:08:48.139Z,101001.49
2019-03-30T08:11:17.873Z,100995.66
2019-03-30T08:13:47.823Z,100994.92
2019-03-30T08:16:17.938Z,100988.58
2019-03-30T08:18:47.673Z,100989.37
2019-03-30T08:21:18.453Z,100990.77
2019-03-30T08:23:48.194Z,100991.11
2019-03-30T08:26:17.926Z,100974.66
2019-03-30T08:28:47.805Z,100975.78
2019-03-30T08:31:17.636Z,100965.80
2019-03-30T08:33:47.528Z,100964.10
2019-03-30T08:36:17.334Z,100975.78
2019-03-30T08:38:47.185Z,100955.97
2019-03-30T08:41:16.970Z,100949.93
2019-03-30T08:43:46.768Z,100947.74
2019-03-30T08:46:16.690Z,100942.63
2019-03-30T08:48:46.469Z,100947.81
2019-03-30T08:51:16.475Z,100941.53
2019-03-30T08:53:54.511Z,100939.22
2019-03-30T08:56:17.982Z,100949.55
2019-03-30T08:58:47.977Z,100930.09
2019-03-30T09:01:17.854Z,100948.81
2019-03-30T09:03:47.682Z,100933.40
2019-03-30T09:06:17.708Z,100928.84
2019-03-30T09:08:47.478Z,100934.47
2019-03-30T09:11:17.212Z,100938.14
2019-03-30T09:13:47.190Z,100936.55
2019-03-30T09:16:17.007Z,100929.50
2019-03-30T09:18:46.750Z,100915.52
2019-03-30T09:21:16.937Z,100911.27
2019-03-30T09:23:46.661Z,100914.72
2019-03-30T09:26:16.880Z,100916.17
2019-03-30T09:28:46.834Z,100912.83
2019-03-30T09:31:16.574Z,100915.41
2019-03-30T09:33:46.321Z,100912.86
2019-03-30T09:36:16.269Z,100909.34
2019-03-30T09:38:45.997Z,100913.85
2019-03-30T09:41:15.831Z,100905.47
2019-03-30T09:43:45.710Z,100895.11
2019-03-30T09:46:15.435Z,100899.41
2019-03-30T09:48:45.281Z,100892.77
2019-03-30T09:51:15.351Z,100889.55
2019-03-30T09:53:45.082Z,100891.92
2019-03-30T09:56:14.825Z,100924.61
2019-03-30T09:58:44.982Z,100907.94
2019-03-30T10:01:14.811Z,100896.44
2019-03-30T10:03:44.637Z,100899.26
2019-03-30T10:06:14.507Z,100908.91
2019-03-30T10:08:44.386Z,100891.57
2019-03-30T10:11:14.107Z,100890.48
2019-03-30T10:13:44.166Z,100887.05
2019-03-30T10:16:13.959Z,100892.67
2019-03-30T10:18:43.714Z,100900.84
2019-03-30T10:21:13.811Z,100882.99
2019-03-30T10:23:43.555Z,100881.08
2019-03-30T10:26:13.296Z,100864.74
2019-03-30T10:28:43.152Z,100861.06
2019-03-30T10:31:12.895Z,100863.98
2019-03-30T10:33:42.634Z,100867.52
2019-03-30T10:36:12.679Z,100871.95
2019-03-30T10:38:42.440Z,100861.00
2019-03-30T10:41:12.159Z,100869.34
2019-03-30T10:43:42.099Z,100860.02
2019-03-30T10:46:11.881Z,100844.40
2019-03-30T10:48:41.734Z,100852.62
2019-03-30T10:51:11.627Z,100879.52
2019-03-30T10:53:41.409Z,100884.51
2019-03-30T10:56:11.229Z,100764.82
2019-03-30T10:58:41.208Z,100846.54
2019-03-30T11:01:11.058Z,100850.66
2019-03-30T11:03:41.120Z,100851.88
2019-03-30T11:06:11.038Z,100886.92
2019-03-30T11:08:40.836Z,100845.45
2019-03-30T11:11:10.712Z,100874.11
2019-03-30T11:13:40.687Z,100860.16
2019-03-30T11:16:10.443Z,100835.12
2019-03-30T11:18:40.220Z,100845.09
2019-03-30T11:21:10.214Z,100829.73
2019-03-30T11:23:39.950Z,100563.00
2019-03-30T11:26:09.665Z,100825.39
2019-03-30T11:28:39.657Z,100826.03
2019-03-30T11:31:09.405Z,100824.19
2019-03-30T11:33:39.171Z,100815.03
2019-03-30T11:36:09.144Z,100804.48
2019-03-30T11:38:38.860Z,100819.50
2019-03-30T11:41:08.619Z,100811.09
2019-03-30T11:43:38.522Z,100805.66
2019-03-30T11:46:08.269Z,100808.56
2019-03-30T11:48:38.098Z,100806.55
2019-03-30T11:51:07.987Z,100815.94
2019-03-30T11:53:37.735Z,100798.74
2019-03-30T11:56:07.590Z,100796.94
2019-03-30T11:58:37.549Z,100789.30
2019-03-30T12:01:07.286Z,100786.75
2019-03-30T12:03:37.360Z,100802.06
2019-03-30T12:06:08.525Z,100778.59
2019-03-30T12:08:38.254Z,100789.48
2019-03-30T12:11:08.036Z,100777.52
2019-03-30T12:13:37.914Z,100769.14
2019-03-30T12:16:07.708Z,100768.25
2019-03-30T12:18:37.517Z,100759.47
2019-03-30T12:21:07.280Z,100760.63
2019-03-30T12:23:37.019Z,100760.31
2019-03-30T12:26:06.936Z,100750.61
2019-03-30T12:28:36.799Z,100751.03
2019-03-30T12:31:06.527Z,100737.73
2019-03-30T12:33:36.497Z,100738.39
2019-03-30T12:36:06.691Z,100746.92
2019-03-30T12:38:36.522Z,100763.83
2019-03-30T12:41:06.429Z,100762.97
2019-03-30T12:43:39.047Z,100722.77
2019-03-30T12:46:08.010Z,100739.11
2019-03-30T12:48:37.753Z,100736.03
2019-03-30T12:51:07.519Z,100716.61
2019-03-30T12:53:49.490Z,100716.51
2019-03-30T12:56:09.567Z,100709.89
2019-03-30T12:58:39.662Z,100696.06
2019-03-30T13:01:09.379Z,100688.48
2019-03-30T13:03:39.212Z,100696.59
2019-03-30T13:06:09.124Z,100696.50
2019-03-30T13:08:39.045Z,100699.42
2019-03-30T13:11:08.858Z,100692.98
2019-03-30T13:13:38.942Z,100687.36
2019-03-30T13:16:08.672Z,100691.00
2019-03-30T13:18:38.399Z,100690.80
2019-03-30T13:21:08.304Z,100688.70
2019-03-30T13:23:38.047Z,100678.87
2019-03-30T13:26:07.903Z,100573.89
2019-03-30T13:28:37.779Z,100679.06
2019-03-30T13:31:08.093Z,100670.59
2019-03-30T13:33:37.992Z,100669.80
2019-03-30T13:36:10.813Z,100666.10
2019-03-30T13:38:41.033Z,100675.62
2019-03-30T13:41:13.977Z,100654.77
2019-03-30T13:43:42.462Z,100666.73
2019-03-30T13:46:12.202Z,100645.50
2019-03-30T13:48:41.939Z,100648.07
2019-03-30T13:51:11.806Z,100641.78
2019-03-30T13:53:41.535Z,100643.87
2019-03-30T13:56:17.217Z,100644.59
2019-03-30T13:58:42.989Z,100627.70
2019-03-30T14:01:12.722Z,100627.56
2019-03-30T14:03:42.471Z,100633.46
2019-03-30T14:06:12.383Z,100627.50
2019-03-30T14:08:42.133Z,100618.78
2019-03-30T14:11:11.976Z,100501.09
2019-03-30T14:13:41.827Z,100600.87
2019-03-30T14:16:11.603Z,100602.66
2019-03-30T14:18:41.334Z,100603.28
2019-03-30T14:21:11.418Z,100598.01
2019-03-30T14:23:43.493Z,100621.20
2019-03-30T14:26:12.709Z,100589.05
2019-03-30T14:28:42.973Z,100594.42
2019-03-30T14:31:12.810Z,100584.59
2019-03-30T14:33:42.750Z,100578.09
2019-03-30T14:36:12.627Z,100570.97
2019-03-30T14:38:43.711Z,100558.75
2019-03-30T14:41:13.471Z,100559.83
2019-03-30T14:43:43.325Z,100570.73
2019-03-30T14:46:13.259Z,100548.26
2019-03-30T14:48:43.039Z,100551.33
2019-03-30T14:51:12.806Z,100539.08
2019-03-30T14:53:42.691Z,100544.58
2019-03-30T14:56:12.466Z,100533.71
2019-03-30T14:58:42.254Z,100529.08
2019-03-30T15:01:12.197Z,100520.17
2019-03-30T15:03:41.917Z,100516.16
2019-03-30T15:06:11.704Z,100513.16
2019-03-30T15:08:41.737Z,100507.47
2019-03-30T15:11:11.561Z,100510.78
2019-03-30T15:13:41.502Z,100510.51
2019-03-30T15:16:11.323Z,100505.26
2019-03-30T15:18:41.130Z,100389.23
2019-03-30T15:21:10.873Z,100502.70
2019-03-30T15:23:40.915Z,100499.09
2019-03-30T15:26:10.646Z,100515.86
2019-03-30T15:28:42.774Z,100497.00
2019-03-30T15:31:12.078Z,100497.54
2019-03-30T15:33:41.858Z,100500.67
2019-03-30T15:36:12.021Z,100495.63
2019-03-30T15:38:42.129Z,100496.91
2019-03-30T15:41:11.897Z,100494.11
2019-03-30T15:43:41.717Z,100482.62
2019-03-30T15:46:14.231Z,100482.62
2019-03-30T15:48:43.056Z,100371.31
2019-03-30T15:51:13.229Z,100460.87
2019-03-30T15:53:43.001Z,100460.87
2019-03-30T15:56:13.235Z,100450.53
2019-03-30T15:58:43.357Z,100356.81
2019-03-30T16:01:13.099Z,100453.87
2019-03-30T16:03:42.977Z,100343.66
2019-03-30T16:06:13.022Z,100437.75
2019-03-30T16:08:42.798Z,100437.75
2019-03-30T16:11:12.655Z,100437.98
2019-03-30T16:13:42.631Z,100440.47
2019-03-30T16:16:12.552Z,100428.54
2019-03-30T16:18:42.336Z,100423.29
2019-03-30T16:21:12.516Z,100424.38
2019-03-30T16:23:42.347Z,100408.97
2019-03-30T16:26:12.208Z,100409.45
2019-03-30T16:28:42.160Z,100413.64
2019-03-30T16:31:11.968Z,100406.81
2019-03-30T16:33:41.768Z,100406.20
2019-03-30T16:36:11.779Z,100390.47
2019-03-30T16:38:41.546Z,100403.95
2019-03-30T16:41:11.360Z,100399.86
2019-03-30T16:43:41.332Z,100404.19
2019-03-30T16:46:11.123Z,100402.45
2019-03-30T16:48:41.133Z,100400.61
2019-03-30T16:51:11.134Z,100395.41
2019-03-30T16:53:40.947Z,100400.55
2019-03-30T16:56:10.732Z,100391.67
2019-03-30T16:58:40.605Z,100403.77
2019-03-30T17:01:10.660Z,100391.77
2019-03-30T17:03:40.447Z,100374.64
2019-03-30T17:06:10.772Z,100398.22
2019-03-30T17:08:40.535Z,100378.83
2019-03-30T17:11:10.419Z,100384.81
2019-03-30T17:13:40.339Z,100374.23
2019-03-30T17:16:10.217Z,100375.52
2019-03-30T17:18:40.174Z,100371.48
2019-03-30T17:21:10.073Z,100367.87
2019-03-30T17:23:39.862Z,100370.81
2019-03-30T17:26:09.628Z,100368.47
2019-03-30T17:28:39.591Z,100365.86
2019-03-30T17:31:09.707Z,100355.31
2019-03-30T17:33:39.613Z,100368.75
2019-03-30T17:36:09.565Z,100368.19
2019-03-30T17:38:41.992Z,100359.84
2019-03-30T17:41:11.826Z,100358.06
2019-03-30T17:43:41.606Z,100364.53
2019-03-30T17:46:11.338Z,100346.56
2019-03-30T17:48:41.771Z,100348.69
2019-03-30T17:51:11.617Z,100349.50
2019-03-30T17:53:41.393Z,100344.19
2019-03-30T17:56:11.257Z,100352.81
2019-03-30T17:58:41.118Z,100343.62
2019-03-30T18:01:10.869Z,100336.11
2019-03-30T18:03:40.775Z,100332.58
2019-03-30T18:06:10.679Z,100333.39
2019-03-30T18:08:42.129Z,100340.70
2019-03-30T18:11:11.976Z,100327.12
2019-03-30T18:13:41.926Z,100327.58
2019-03-30T18:16:11.890Z,100336.73
2019-03-30T18:18:41.656Z,100326.23
2019-03-30T18:21:11.599Z,100313.50
2019-03-30T18:23:41.465Z,100336.97
2019-03-30T18:26:11.195Z,100330.78
2019-03-30T18:28:41.108Z,100328.97
2019-03-30T18:31:11.355Z,100306.66
2019-03-30T18:33:41.246Z,100320.59
2019-03-30T18:36:13.038Z,100306.16
2019-03-30T18:38:43.797Z,100306.97
2019-03-30T18:41:13.758Z,100323.89
2019-03-30T18:43:43.782Z,100316.89
2019-03-30T18:46:13.609Z,100316.01
2019-03-30T18:48:43.420Z,100308.63
2019-03-30T18:51:13.953Z,100310.81
2019-03-30T18:53:44.339Z,100302.39
2019-03-30T18:56:14.126Z,100290.51
2019-03-30T18:58:44.313Z,100289.59
2019-03-30T19:01:14.108Z,100279.89
2019-03-30T19:03:43.858Z,100280.31
2019-03-30T19:06:13.926Z,100271.97
2019-03-30T19:08:43.735Z,100268.47
2019-03-30T19:11:13.514Z,100271.51
2019-03-30T19:13:43.483Z,100270.93
2019-03-30T19:16:13.224Z,100262.16
2019-03-30T19:18:43.043Z,100251.63
2019-03-30T19:21:13.101Z,100253.74
2019-03-30T19:23:42.959Z,100262.85
2019-03-30T19:26:12.782Z,100255.85
2019-03-30T19:28:55.634Z,100247.13
2019-03-30T19:31:14.294Z,100252.31
2019-03-30T19:33:44.337Z,100251.43
2019-03-30T19:36:14.214Z,100236.13
2019-03-30T19:38:43.990Z,100235.20
2019-03-30T19:41:13.880Z,100237.28
2019-03-30T19:43:43.794Z,100247.73
2019-03-30T19:46:13.637Z,100235.09
2019-03-30T19:48:43.822Z,100243.73
2019-03-30T19:51:13.677Z,100226.33
2019-03-30T19:53:43.416Z,100219.30
2019-03-30T19:56:13.571Z,100066.08
2019-03-30T19:58:43.362Z,100210.53
2019-03-30T20:01:13.133Z,100207.88
2019-03-30T20:03:43.308Z,100200.45
2019-03-30T20:06:13.085Z,100201.34
2019-03-30T20:08:42.858Z,100206.14
2019-03-30T20:11:13.057Z,100193.13
2019-03-30T20:13:42.843Z,100187.86
2019-03-30T20:16:12.606Z,100192.63
2019-03-30T20:18:42.490Z,100178.20
2019-03-30T20:21:12.269Z,100172.98
2019-03-30T20:23:42.049Z,100159.00
2019-03-30T20:26:12.304Z,100180.70
2019-03-30T20:28:42.152Z,100181.09
2019-03-30T20:31:11.873Z,100171.83
2019-03-30T20:33:41.875Z,100157.80
2019-03-30T20:36:11.684Z,100156.77
2019-03-30T20:38:41.480Z,100156.72
2019-03-30T20:41:11.413Z,100158.03
2019-03-30T20:43:41.211Z,100145.39
2019-03-30T20:46:11.003Z,100148.88
2019-03-30T20:48:40.966Z,100163.17
2019-03-30T20:51:10.761Z,100135.29
2019-03-30T20:53:40.534Z,100123.11
2019-03-30T20:56:10.418Z,100133.98
2019-03-30T20:58:40.269Z,100130.79
2019-03-30T21:01:10.052Z,100150.52
2019-03-30T21:03:39.904Z,100189.39
2019-03-30T21:06:09.732Z,100129.52
2019-03-30T21:08:39.623Z,100126.36
2019-03-30T21:11:09.484Z,100132.77
2019-03-30T21:13:39.332Z,100132.64
2019-03-30T21:16:09.112Z,100139.57
2019-03-30T21:18:39.394Z,100141.30
2019-03-30T21:21:09.418Z,100148.70
2019-03-30T21:23:39.238Z,100126.52
2019-03-30T21:26:09.048Z,100120.42
2019-03-30T21:28:39.001Z,100136.50
2019-03-30T21:31:08.807Z,100133.05
2019-03-30T21:33:38.781Z,100128.67
2019-03-30T21:36:08.559Z,100126.06
2019-03-30T21:38:38.282Z,100124.71
2019-03-30T21:41:08.219Z,100124.59
2019-03-30T21:43:38.033Z,100125.76
2019-03-30T21:46:10.133Z,100127.31
2019-03-30T21:48:40.054Z,100128.95
2019-03-30T21:51:09.831Z,100137.61
2019-03-30T21:53:39.635Z,100128.86
2019-03-30T21:56:09.606Z,100124.44
2019-03-30T21:58:39.383Z,100150.72
2019-03-30T22:01:09.161Z,100145.33
2019-03-30T22:03:39.190Z,100133.31
2019-03-30T22:06:09.373Z,100134.86
2019-03-30T22:08:39.437Z,100138.67
2019-03-30T22:11:09.432Z,100141.14
2019-03-30T22:13:39.289Z,100143.94
2019-03-30T22:16:09.474Z,100153.33
2019-03-30T22:18:39.382Z,100150.95
2019-03-30T22:21:09.189Z,100150.34
2019-03-30T22:23:39.014Z,100150.30
2019-03-30T22:26:08.839Z,100148.11
2019-03-30T22:28:38.619Z,100153.22
2019-03-30T22:31:08.464Z,100157.86
2019-03-30T22:33:38.664Z,100161.20
2019-03-30T22:36:08.443Z,100163.72
2019-03-30T22:38:38.277Z,100160.17
2019-03-30T22:41:08.196Z,100162.68
2019-03-30T22:43:37.967Z,100162.53
2019-03-30T22:46:07.921Z,100167.64
2019-03-30T22:48:37.990Z,100167.07
2019-03-30T22:51:07.834Z,100167.44
2019-03-30T22:53:37.646Z,100172.02
2019-03-30T22:56:07.475Z,100174.62
2019-03-30T22:58:37.321Z,100173.27
2019-03-30T23:01:09.052Z,100168.02
2019-03-30T23:03:38.862Z,100168.95
2019-03-30T23:06:08.680Z,100172.33
2019-03-30T23:08:38.600Z,100172.55
2019-03-30T23:11:08.391Z,100171.14
2019-03-30T23:13:38.145Z,100171.50
2019-03-30T23:16:08.045Z,100174.00
2019-03-30T23:18:37.846Z,100178.06
2019-03-30T23:21:07.689Z,100180.09
2019-03-30T23:23:37.508Z,100185.96
2019-03-30T23:26:07.302Z,100170.08
2019-03-30T23:28:37.045Z,100167.37
2019-03-30T23:31:06.991Z,100158.98
2019-03-30T23:33:36.893Z,100164.44
2019-03-30T23:36:06.647Z,100160.64
2019-03-30T23:38:36.845Z,100163.91
2019-03-30T23:41:06.594Z,100163.22
2019-03-30T23:43:36.390Z,100157.79
2019-03-30T23:46:06.225Z,100166.36
2019-03-30T23:48:35.981Z,100158.34
2019-03-30T23:51:05.763Z,100153.02
2019-03-30T23:53:35.702Z,100152.86
2019-03-30T23:56:18.658Z,100154.92
2019-03-30T23:58:48.747Z,100160.42
